Time;durP1;ratioP1;P1;durP2;ratioP2;P2;SDS_P1;SDS_P2;PMS_P1;PMS_P2;Temp;Humidity;BMP_temperature;BMP_pressure;BME280_temperature;BME280_humidity;BME280_pressure;Samples;Min_cycle;Max_cycle;Signal;HPM_P1;HPM_P2
2023/09/10 00:00:45;;;;;;;4.88;4.53;;;18.40;99.90;;;;;;4981490;28;20133;-58
2023/09/10 00:03:10;;;;;;;;;;;18.40;99.90;;;;;;5006492;28;20034;-57
2023/09/10 00:05:36;;;;;;;5.60;4.60;;;18.40;99.90;;;;;;4982749;28;20012;-54
2023/09/10 00:08:02;;;;;;;5.85;5.30;;;18.30;99.90;;;;;;4989951;28;20042;-56
2023/09/10 00:10:28;;;;;;;;;;;18.30;99.90;;;;;;4983388;28;20049;-57
2023/09/10 00:12:53;;;;;;;9.63;8.80;;;18.30;99.90;;;;;;4981903;28;19925;-53
2023/09/10 00:15:19;;;;;;;11.95;10.95;;;18.30;99.90;;;;;;4982298;28;20122;-56
2023/09/10 00:17:44;;;;;;;14.27;12.98;;;18.40;99.90;;;;;;4989273;28;20085;-56
2023/09/10 00:20:10;;;;;;;10.90;9.80;;;18.40;99.90;;;;;;4986146;28;20037;-55
2023/09/10 00:22:37;;;;;;;;;;;18.40;99.90;;;;;;4987970;28;20112;-56
2023/09/10 00:25:04;;;;;;;3.17;2.28;;;18.40;99.90;;;;;;4986014;28;19929;-57
2023/09/10 00:27:29;;;;;;;5.95;5.43;;;18.30;99.90;;;;;;4984805;28;20074;-56
2023/09/10 00:29:55;;;;;;;5.97;5.57;;;18.30;99.90;;;;;;4985740;28;20072;-54
2023/09/10 00:32:21;;;;;;;1.40;1.30;;;18.30;99.90;;;;;;4984542;28;20527;-56
2023/09/10 00:34:47;;;;;;;2.10;2.00;;;18.30;99.90;;;;;;4983538;28;20053;-55
2023/09/10 00:37:16;;;;;;;6.85;6.22;;;18.30;99.90;;;;;;4980558;28;20042;-53
2023/09/10 00:39:42;;;;;;;11.48;10.48;;;18.30;99.90;;;;;;4985661;28;20074;-53
2023/09/10 00:42:09;;;;;;;7.78;7.15;;;18.20;99.90;;;;;;4984418;28;20050;-56
2023/09/10 00:44:35;;;;;;;11.18;10.18;;;18.20;99.90;;;;;;4984237;28;20505;-53
2023/09/10 00:47:03;;;;;;;15.00;13.68;;;18.20;99.90;;;;;;4983870;28;20039;-56
2023/09/10 00:49:30;;;;;;;11.57;10.02;;;18.20;99.90;;;;;;4985569;28;20038;-57
2023/09/10 00:51:57;;;;;;;7.95;7.35;;;18.20;99.90;;;;;;4985497;28;20039;-55
2023/09/10 00:54:24;;;;;;;11.88;8.82;;;18.20;99.90;;;;;;4983834;28;20042;-57
2023/09/10 00:56:50;;;;;;;7.03;6.43;;;18.20;99.90;;;;;;4982454;28;20281;-54
2023/09/10 00:59:16;;;;;;;5.40;5.00;;;18.00;99.90;;;;;;4985313;28;20050;-57
2023/09/10 01:01:42;;;;;;;6.80;6.20;;;17.90;99.90;;;;;;4985877;28;20034;-58
2023/09/10 01:04:08;;;;;;;10.18;9.43;;;17.90;99.90;;;;;;4986324;28;20032;-56
2023/09/10 01:06:34;;;;;;;11.48;9.82;;;17.80;99.90;;;;;;4982053;28;20042;-55
2023/09/10 01:09:00;;;;;;;11.57;10.52;;;17.70;99.90;;;;;;4982335;28;20035;-56
2023/09/10 01:11:48;;;;;;;16.65;15.02;;;17.70;99.90;;;;;;4985701;28;20080;-57
2023/09/10 01:14:41;;;;;;;18.23;16.63;;;17.60;99.90;;;;;;4982195;28;20030;-54
2023/09/10 01:17:20;;;;;;;25.88;22.90;;;17.50;99.90;;;;;;4986597;28;20042;-54
2023/09/10 01:20:09;;;;;;;21.48;18.95;;;17.40;99.90;;;;;;4985529;28;20030;-53
2023/09/10 01:23:11;;;;;;;22.08;20.08;;;17.30;99.90;;;;;;4981297;28;20038;-57
2023/09/10 01:25:37;;;;;;;17.80;16.30;;;17.20;99.90;;;;;;4981907;28;20117;-54
2023/09/10 01:28:03;;;;;;;17.52;16.08;;;17.10;99.90;;;;;;4982281;28;20459;-54
2023/09/10 01:30:33;;;;;;;18.08;16.38;;;17.00;99.90;;;;;;4983816;28;20298;-53
2023/09/10 01:33:26;;;;;;;18.40;16.67;;;17.00;99.90;;;;;;4984232;28;20050;-55
2023/09/10 01:36:01;;;;;;;24.65;22.23;;;17.00;99.90;;;;;;4984974;28;20065;-53
2023/09/10 01:38:36;;;;;;;27.85;25.15;;;17.10;99.90;;;;;;4986193;28;20038;-56
2023/09/10 01:41:11;;;;;;;39.03;35.03;;;17.10;99.90;;;;;;4982951;28;20066;-56
2023/09/10 01:43:37;;;;;;;43.17;38.22;;;17.20;99.90;;;;;;4980671;28;20068;-53
2023/09/10 01:46:05;;;;;;;44.05;39.58;;;17.30;99.90;;;;;;4985093;28;20038;-57
2023/09/10 01:48:31;;;;;;;38.85;35.05;;;17.40;99.90;;;;;;4981875;28;20232;-54
2023/09/10 01:50:57;;;;;;;32.30;28.27;;;17.50;99.90;;;;;;4982602;28;20050;-56
2023/09/10 01:53:23;;;;;;;20.95;19.10;;;17.60;99.90;;;;;;4984918;28;20382;-56
2023/09/10 01:55:48;;;;;;;19.45;17.23;;;17.60;99.90;;;;;;4984793;28;20041;-55
2023/09/10 01:58:14;;;;;;;17.15;15.45;;;17.60;99.90;;;;;;4984052;28;20084;-57
2023/09/10 02:00:41;;;;;;;12.55;11.25;;;17.60;99.90;;;;;;4981892;28;20035;-55
2023/09/10 02:03:06;;;;;;;10.80;9.80;;;17.60;99.90;;;;;;4982900;28;20046;-56
2023/09/10 02:05:32;;;;;;;10.48;9.48;;;17.50;99.90;;;;;;4984987;28;20090;-55
2023/09/10 02:07:58;;;;;;;11.02;10.07;;;17.50;99.90;;;;;;4984768;28;20034;-57
2023/09/10 02:10:24;;;;;;;12.27;11.27;;;17.50;99.90;;;;;;4980225;28;20493;-56
2023/09/10 02:12:49;;;;;;;13.27;12.18;;;17.50;99.90;;;;;;4984859;28;20105;-56
2023/09/10 02:15:17;;;;;;;15.27;13.75;;;17.50;99.90;;;;;;4989847;28;20034;-52
2023/09/10 02:17:42;;;;;;;12.45;11.25;;;17.50;99.90;;;;;;4990855;28;20076;-57
2023/09/10 02:20:09;;;;;;;14.15;12.85;;;17.50;99.90;;;;;;4989861;28;20413;-56
2023/09/10 02:22:37;;;;;;;13.93;12.82;;;17.50;99.90;;;;;;4989347;28;20100;-56
2023/09/10 02:25:03;;;;;;;13.07;11.93;;;17.50;99.90;;;;;;4988699;28;20042;-56
2023/09/10 02:27:30;;;;;;;12.85;11.48;;;17.50;99.90;;;;;;4989285;28;20078;-54
2023/09/10 02:29:56;;;;;;;9.55;8.65;;;17.40;99.90;;;;;;4987701;28;20049;-55
2023/09/10 02:32:22;;;;;;;10.07;9.27;;;17.50;99.90;;;;;;4988679;28;20042;-57
2023/09/10 02:34:48;;;;;;;8.32;7.70;;;17.50;99.90;;;;;;4989881;28;20074;-56
2023/09/10 02:37:14;;;;;;;9.90;9.10;;;17.40;99.90;;;;;;4989346;28;20065;-57
2023/09/10 02:39:40;;;;;;;;;;;17.40;99.90;;;;;;4989890;28;20052;-53
2023/09/10 02:42:05;;;;;;;8.40;6.20;;;17.40;99.90;;;;;;4989920;28;19918;-54
2023/09/10 02:44:31;;;;;;;9.95;9.05;;;17.30;99.90;;;;;;4988350;28;20046;-54
2023/09/10 02:46:56;;;;;;;8.55;7.78;;;17.30;99.90;;;;;;4995051;28;20073;-56
2023/09/10 02:49:24;;;;;;;10.68;9.50;;;17.20;99.90;;;;;;4988248;28;20034;-56
2023/09/10 02:51:50;;;;;;;11.25;10.23;;;17.10;99.90;;;;;;4988828;28;20405;-56
2023/09/10 02:54:16;;;;;;;12.82;11.73;;;17.10;99.90;;;;;;4989071;28;20038;-55
2023/09/10 02:56:42;;;;;;;14.57;13.23;;;17.00;99.90;;;;;;4989481;28;20244;-54
2023/09/10 02:59:07;;;;;;;13.57;12.48;;;17.00;99.90;;;;;;4989110;28;20513;-53
2023/09/10 03:01:33;;;;;;;11.40;10.60;;;17.00;99.90;;;;;;4988796;28;20092;-56
2023/09/10 03:03:59;;;;;;;17.17;15.73;;;17.00;99.90;;;;;;4989541;28;20031;-53
2023/09/10 03:06:24;;;;;;;14.70;12.95;;;17.00;99.90;;;;;;4989648;28;20042;-54
2023/09/10 03:08:50;;;;;;;10.77;9.93;;;16.90;99.90;;;;;;4992445;28;20041;-54
2023/09/10 03:11:15;;;;;;;14.45;13.05;;;16.90;99.90;;;;;;4992787;28;20141;-53
2023/09/10 03:13:41;;;;;;;13.52;12.23;;;16.90;99.90;;;;;;4992945;28;20034;-55
2023/09/10 03:16:07;;;;;;;16.90;15.15;;;16.90;99.90;;;;;;4993128;28;20046;-54
2023/09/10 03:18:33;;;;;;;17.30;15.75;;;16.90;99.90;;;;;;4992563;28;20041;-54
2023/09/10 03:21:02;;;;;;;22.35;20.25;;;16.80;99.90;;;;;;4993077;28;20038;-52
2023/09/10 03:23:27;;;;;;;23.23;20.77;;;16.80;99.90;;;;;;4991545;28;20408;-52
2023/09/10 03:25:53;;;;;;;21.58;19.05;;;16.80;99.90;;;;;;4991984;28;20126;-53
2023/09/10 03:28:18;;;;;;;23.45;21.02;;;16.80;99.90;;;;;;4992827;28;20543;-55
2023/09/10 03:30:44;;;;;;;19.10;17.55;;;16.80;99.90;;;;;;4993017;28;20038;-54
2023/09/10 03:33:09;;;;;;;21.08;19.08;;;16.70;99.90;;;;;;4993190;28;20057;-56
2023/09/10 03:35:35;;;;;;;20.33;18.55;;;16.70;99.90;;;;;;4992736;28;20038;-55
2023/09/10 03:38:00;;;;;;;19.38;17.50;;;16.60;99.90;;;;;;4991759;28;20042;-55
2023/09/10 03:40:26;;;;;;;30.50;27.35;;;16.60;99.90;;;;;;4992521;28;20034;-52
2023/09/10 03:42:52;;;;;;;26.92;24.48;;;16.50;99.90;;;;;;4992644;28;20070;-54
2023/09/10 03:45:17;;;;;;;25.08;22.88;;;16.50;99.90;;;;;;4991612;28;20173;-54
2023/09/10 03:47:43;;;;;;;31.48;22.92;;;16.40;99.90;;;;;;4987972;28;20082;-54
2023/09/10 03:50:11;;;;;;;20.95;19.10;;;16.40;99.90;;;;;;4992468;28;20034;-56
2023/09/10 03:52:36;;;;;;;21.65;19.75;;;16.40;99.90;;;;;;4992769;28;20085;-55
2023/09/10 03:55:02;;;;;;;20.30;18.50;;;16.40;99.90;;;;;;4993040;28;20050;-57
2023/09/10 03:57:27;;;;;;;18.45;16.95;;;16.40;99.90;;;;;;4991986;28;20045;-57
2023/09/10 03:59:53;;;;;;;18.60;17.10;;;16.40;99.90;;;;;;4992454;28;20033;-54
2023/09/10 04:02:19;;;;;;;19.05;17.33;;;16.50;99.90;;;;;;4992371;28;20449;-54
2023/09/10 04:04:46;;;;;;;;;;;16.50;99.90;;;;;;4992629;28;20038;-53
2023/09/10 04:07:12;;;;;;;19.63;17.83;;;16.60;99.90;;;;;;4992713;28;20280;-54
2023/09/10 04:09:37;;;;;;;18.27;16.67;;;16.60;99.90;;;;;;4991796;28;20030;-53
2023/09/10 04:12:03;;;;;;;16.17;14.63;;;16.60;99.90;;;;;;4991691;28;20616;-57
2023/09/10 04:14:30;;;;;;;16.00;14.68;;;16.60;99.90;;;;;;4989816;28;20042;-54
2023/09/10 04:16:56;;;;;;;17.88;16.17;;;16.70;99.90;;;;;;4993660;28;20038;-53
2023/09/10 04:19:22;;;;;;;16.98;15.48;;;16.60;99.90;;;;;;4991964;28;20045;-56
2023/09/10 04:21:48;;;;;;;19.92;18.08;;;16.60;99.90;;;;;;4991779;28;20100;-57
2023/09/10 04:24:14;;;;;;;20.92;18.83;;;16.60;99.90;;;;;;4992186;28;20039;-56
2023/09/10 04:26:39;;;;;;;16.75;15.25;;;16.60;99.90;;;;;;4992415;28;20039;-55
2023/09/10 04:29:05;;;;;;;16.42;14.88;;;16.60;99.90;;;;;;4991947;28;20567;-54
2023/09/10 04:31:36;;;;;;;28.95;25.90;;;16.60;99.90;;;;;;4991969;28;20038;-54
2023/09/10 04:34:02;;;;;;;25.48;23.00;;;16.50;99.90;;;;;;4991877;28;20405;-55
2023/09/10 04:36:27;;;;;;;33.08;29.65;;;16.40;99.90;;;;;;4992024;28;20042;-57
2023/09/10 04:38:54;;;;;;;36.65;32.85;;;16.40;99.90;;;;;;4986810;28;20480;-54
2023/09/10 04:41:19;;;;;;;42.65;38.45;;;16.30;99.90;;;;;;4986027;28;20038;-57
2023/09/10 04:43:45;;;;;;;45.35;40.67;;;16.20;99.90;;;;;;4983192;28;20485;-56
2023/09/10 04:46:10;;;;;;;40.15;36.15;;;16.20;99.90;;;;;;4985456;28;20038;-55
2023/09/10 04:48:36;;;;;;;40.72;36.92;;;16.10;99.90;;;;;;4981405;28;20045;-55
2023/09/10 04:51:02;;;;;;;38.88;35.22;;;16.10;99.90;;;;;;4986058;28;20501;-56
2023/09/10 04:53:27;;;;;;;36.85;33.42;;;16.10;99.90;;;;;;4984274;28;20121;-55
2023/09/10 04:55:54;;;;;;;32.88;29.15;;;16.10;99.90;;;;;;4983390;28;20122;-55
2023/09/10 04:58:19;;;;;;;;;;;16.20;99.90;;;;;;4986366;28;20030;-55
2023/09/10 05:00:45;;;;;;;37.38;33.38;;;16.20;99.90;;;;;;4986230;28;20380;-52
2023/09/10 05:03:11;;;;;;;33.67;30.63;;;16.10;99.90;;;;;;4986036;28;20117;-53
2023/09/10 05:05:36;;;;;;;65.07;39.95;;;16.20;99.90;;;;;;4982846;28;20035;-56
2023/09/10 05:08:02;;;;;;;32.50;29.05;;;16.10;99.90;;;;;;4989257;28;20065;-56
2023/09/10 05:10:28;;;;;;;;;;;16.10;99.90;;;;;;4983451;28;20134;-53
2023/09/10 05:12:54;;;;;;;35.30;31.60;;;16.00;99.90;;;;;;4977492;28;20110;-57
2023/09/10 05:15:19;;;;;;;35.38;31.67;;;16.00;99.90;;;;;;4985685;28;20042;-55
2023/09/10 05:17:45;;;;;;;33.92;30.33;;;16.00;99.90;;;;;;4985171;28;20039;-57
2023/09/10 05:20:11;;;;;;;36.53;32.65;;;16.00;99.90;;;;;;4984003;28;20038;-54
2023/09/10 05:22:36;;;;;;;36.33;32.55;;;16.00;99.90;;;;;;4987515;28;20469;-55
2023/09/10 05:25:02;;;;;;;31.10;27.75;;;16.00;99.90;;;;;;4983515;28;20143;-56
2023/09/10 05:27:28;;;;;;;34.80;31.08;;;16.00;99.90;;;;;;4984668;28;20042;-53
2023/09/10 05:29:53;;;;;;;37.25;32.83;;;16.00;99.90;;;;;;4987430;28;20030;-57
2023/09/10 05:32:19;;;;;;;40.05;33.38;;;16.00;99.90;;;;;;4990537;28;20450;-57
2023/09/10 05:34:45;;;;;;;36.92;33.00;;;16.10;99.90;;;;;;4987661;28;20048;-55
2023/09/10 05:37:10;;;;;;;35.08;30.33;;;16.10;99.90;;;;;;4986051;28;20286;-57
2023/09/10 05:39:36;;;;;;;32.03;28.85;;;16.10;99.90;;;;;;4982887;28;20031;-56
2023/09/10 05:42:02;;;;;;;35.08;31.30;;;16.10;99.90;;;;;;4985989;28;20031;-55
2023/09/10 05:44:27;;;;;;;35.17;31.67;;;16.20;99.90;;;;;;4984435;28;20045;-56
2023/09/10 05:46:53;;;;;;;35.20;30.80;;;16.30;99.90;;;;;;4985336;28;20049;-55
2023/09/10 05:49:18;;;;;;;38.20;34.30;;;16.30;99.90;;;;;;4982409;28;20084;-56
2023/09/10 05:51:44;;;;;;;42.30;37.78;;;16.50;99.90;;;;;;4988190;28;20416;-57
2023/09/10 05:54:10;;;;;;;38.72;34.65;;;16.60;99.90;;;;;;4990611;28;20053;-53
2023/09/10 05:56:35;;;;;;;40.47;36.22;;;16.70;99.90;;;;;;4990586;28;20042;-54
2023/09/10 05:59:01;;;;;;;37.63;33.85;;;16.90;99.90;;;;;;4989071;28;20464;-55
2023/09/10 06:01:27;;;;;;;;;;;17.00;99.90;;;;;;4991259;28;20041;-53
2023/09/10 06:03:53;;;;;;;42.25;33.75;;;17.10;99.90;;;;;;4990084;28;20296;-54
2023/09/10 06:06:18;;;;;;;37.55;33.70;;;17.20;99.90;;;;;;4983861;28;20042;-54
2023/09/10 06:08:44;;;;;;;34.15;30.67;;;17.30;99.90;;;;;;4989536;28;20077;-57
2023/09/10 06:11:10;;;;;;;37.08;32.20;;;17.50;99.90;;;;;;4987828;28;20042;-57
2023/09/10 06:13:35;;;;;;;41.50;37.20;;;17.70;99.90;;;;;;4990363;28;20042;-56
2023/09/10 06:16:01;;;;;;;40.80;36.53;;;18.00;99.90;;;;;;4989006;28;20077;-56
2023/09/10 06:18:27;;;;;;;40.08;35.70;;;18.10;99.90;;;;;;4989890;28;20085;-57
2023/09/10 06:20:52;;;;;;;48.58;43.67;;;18.30;99.90;;;;;;4983529;28;20070;-57
2023/09/10 06:23:18;;;;;;;57.83;51.70;;;18.50;99.90;;;;;;4989772;28;20038;-56
2023/09/10 06:25:44;;;;;;;66.20;59.33;;;18.60;99.90;;;;;;4982661;28;20055;-58
2023/09/10 06:28:09;;;;;;;66.95;59.75;;;18.80;99.90;;;;;;4987335;28;20042;-57
2023/09/10 06:30:36;;;;;;;64.30;57.47;;;18.90;99.90;;;;;;4988594;28;20042;-56
2023/09/10 06:33:01;;;;;;;65.85;58.83;;;19.10;99.90;;;;;;4985957;28;20413;-56
2023/09/10 06:35:27;;;;;;;60.72;54.45;;;19.10;99.90;;;;;;4982947;28;20038;-57
2023/09/10 06:37:53;;;;;;;58.63;51.83;;;19.20;99.90;;;;;;4984742;28;20031;-55
2023/09/10 06:40:18;;;;;;;62.92;56.20;;;19.30;99.90;;;;;;4991833;28;20030;-57
2023/09/10 06:42:44;;;;;;;58.80;52.55;;;19.40;99.90;;;;;;4985775;28;20042;-57
2023/09/10 06:45:10;;;;;;;;;;;19.50;99.90;;;;;;4992625;28;20050;-56
2023/09/10 06:47:35;;;;;;;59.10;52.97;;;19.60;99.90;;;;;;4990967;28;20311;-55
2023/09/10 06:50:02;;;;;;;57.33;51.45;;;19.60;99.90;;;;;;4987879;28;20459;-56
2023/09/10 06:52:28;;;;;;;61.63;55.35;;;19.70;99.90;;;;;;4984043;28;20046;-53
2023/09/10 06:54:54;;;;;;;57.90;51.72;;;19.80;99.90;;;;;;4988982;28;20515;-55
2023/09/10 06:57:19;;;;;;;;;;;19.90;99.90;;;;;;4990355;28;20038;-55
2023/09/10 06:59:45;;;;;;;59.53;53.45;;;20.00;99.90;;;;;;4989323;28;19917;-55
2023/09/10 07:02:10;;;;;;;;;;;20.10;99.90;;;;;;4992711;28;20121;-57
2023/09/10 07:04:36;;;;;;;56.22;50.38;;;20.20;99.90;;;;;;4993701;28;20060;-53
2023/09/10 07:07:02;;;;;;;53.55;47.53;;;20.40;99.90;;;;;;4993799;28;20069;-53
2023/09/10 07:09:28;;;;;;;;;;;20.50;99.90;;;;;;4992525;28;20083;-52
2023/09/10 07:11:54;;;;;;;51.45;45.63;;;20.60;99.90;;;;;;4993228;28;19924;-56
2023/09/10 07:14:21;;;;;;;53.67;48.17;;;20.70;99.90;;;;;;4987206;28;20045;-56
2023/09/10 07:16:47;;;;;;;59.85;47.72;;;20.80;99.90;;;;;;4988912;28;20050;-56
2023/09/10 07:19:14;;;;;;;51.85;46.70;;;21.00;99.90;;;;;;4985039;28;20598;-57
2023/09/10 07:21:39;;;;;;;55.95;49.90;;;21.10;99.90;;;;;;4990031;28;20030;-54
2023/09/10 07:24:06;;;;;;;;;;;21.20;99.90;;;;;;4992982;28;20030;-57
2023/09/10 07:26:39;;;;;;;51.90;46.58;;;21.20;99.90;;;;;;4987518;28;19925;-57
2023/09/10 07:29:05;;;;;;;52.92;46.90;;;21.30;99.90;;;;;;4992686;28;20050;-56
2023/09/10 07:31:32;;;;;;;53.08;47.55;;;21.40;99.90;;;;;;4992391;28;20030;-54
2023/09/10 07:33:58;;;;;;;50.20;44.95;;;21.50;99.90;;;;;;4991201;28;20065;-55
2023/09/10 07:36:24;;;;;;;;;;;21.60;99.90;;;;;;4993324;28;20509;-58
2023/09/10 07:38:49;;;;;;;52.38;46.97;;;21.70;99.90;;;;;;4992702;28;19925;-56
2023/09/10 07:41:15;;;;;;;;;;;21.80;99.90;;;;;;4990970;28;20039;-56
2023/09/10 07:43:40;;;;;;;45.70;40.80;;;21.90;99.90;;;;;;4981905;28;20151;-57
2023/09/10 07:46:06;;;;;;;46.08;41.40;;;22.00;99.90;;;;;;4982498;28;20520;-58
2023/09/10 07:48:31;;;;;;;;;;;22.10;99.90;;;;;;4990697;28;20042;-56
2023/09/10 07:50:58;;;;;;;43.13;38.67;;;22.30;99.90;;;;;;4984655;28;20009;-56
2023/09/10 07:53:23;;;;;;;42.90;38.33;;;22.30;99.90;;;;;;4978411;28;20050;-58
2023/09/10 07:55:49;;;;;;;;;;;22.40;99.90;;;;;;4989136;28;20226;-58
2023/09/10 07:58:15;;;;;;;42.35;37.95;;;22.50;99.90;;;;;;4992207;28;20406;-57
2023/09/10 08:00:40;;;;;;;41.22;37.33;;;22.50;99.90;;;;;;4993039;28;20085;-58
2023/09/10 08:03:06;;;;;;;44.33;39.95;;;22.60;99.90;;;;;;4992910;28;20394;-57
2023/09/10 08:05:33;;;;;;;40.75;36.42;;;22.70;99.90;;;;;;4991697;28;20038;-55
2023/09/10 08:08:05;;;;;;;41.92;37.85;;;22.80;99.90;;;;;;4992768;28;20043;-56
2023/09/10 08:10:32;;;;;;;40.42;36.25;;;23.00;99.90;;;;;;4992348;28;20501;-58
2023/09/10 08:12:58;;;;;;;40.40;36.58;;;23.10;99.90;;;;;;4994918;28;20038;-56
2023/09/10 08:15:24;;;;;;;40.10;36.33;;;23.20;99.90;;;;;;4996254;28;20442;-58
2023/09/10 08:17:53;;;;;;;37.85;34.05;;;23.40;99.90;;;;;;4993497;28;20062;-58
2023/09/10 08:20:19;;;;;;;37.80;34.10;;;23.40;99.90;;;;;;4992078;28;20558;-59
2023/09/10 08:22:44;;;;;;;37.40;33.95;;;23.60;99.90;;;;;;4992539;28;20041;-57
2023/09/10 08:25:10;;;;;;;34.58;31.20;;;23.70;99.90;;;;;;4992388;28;20097;-58
2023/09/10 08:27:36;;;;;;;36.95;33.30;;;23.70;99.90;;;;;;4990929;28;20069;-55
2023/09/10 08:30:06;;;;;;;35.63;32.13;;;23.80;99.90;;;;;;4991763;28;20042;-58
2023/09/10 08:32:32;;;;;;;35.78;31.90;;;23.90;99.90;;;;;;4981438;28;20112;-57
2023/09/10 08:34:58;;;;;;;35.72;32.33;;;24.00;99.90;;;;;;4990045;28;20631;-58
2023/09/10 08:37:24;;;;;;;37.38;33.55;;;24.10;99.90;;;;;;4993223;28;20052;-58
2023/09/10 08:39:50;;;;;;;35.35;31.85;;;24.20;99.90;;;;;;4991842;28;20125;-59
2023/09/10 08:42:42;;;;;;;36.10;32.55;;;24.30;99.90;;;;;;4992388;28;20038;-59
2023/09/10 08:45:10;;;;;;;37.70;33.85;;;24.40;99.90;;;;;;4992195;28;20050;-56
2023/09/10 08:47:40;;;;;;;37.60;33.88;;;24.40;99.90;;;;;;4991954;28;20412;-59
2023/09/10 08:50:11;;;;;;;36.55;32.45;;;24.60;99.90;;;;;;4991727;28;20420;-59
2023/09/10 08:52:45;;;;;;;34.15;30.95;;;24.70;99.90;;;;;;4992113;28;20066;-59
2023/09/10 08:55:12;;;;;;;33.85;30.48;;;24.80;99.90;;;;;;4991807;28;20042;-59
2023/09/10 08:57:40;;;;;;;34.40;31.23;;;24.90;99.90;;;;;;4991715;28;20042;-57
2023/09/10 09:00:13;;;;;;;32.97;29.67;;;25.00;99.90;;;;;;4990521;28;20374;-59
2023/09/10 09:02:40;;;;;;;33.70;30.48;;;25.10;99.90;;;;;;4991271;28;20631;-59
2023/09/10 09:05:06;;;;;;;32.88;29.67;;;25.20;99.90;;;;;;4991153;28;20046;-59
2023/09/10 09:07:36;;;;;;;34.38;30.80;;;25.30;99.90;;;;;;4991826;28;20034;-59
2023/09/10 09:10:07;;;;;;;34.05;30.75;;;25.40;99.90;;;;;;4991184;28;20564;-59
2023/09/10 09:12:35;;;;;;;33.10;29.75;;;25.50;99.90;;;;;;4991560;28;20045;-58
2023/09/10 09:15:03;;;;;;;32.58;29.38;;;25.60;99.90;;;;;;4990949;28;20444;-57
2023/09/10 09:17:29;;;;;;;32.33;29.25;;;25.70;99.90;;;;;;4991601;28;20038;-58
2023/09/10 09:19:59;;;;;;;37.53;30.30;;;25.80;99.90;;;;;;4973660;28;20046;-58
2023/09/10 09:22:28;;;;;;;33.85;29.10;;;25.80;99.90;;;;;;4973963;28;20063;-59
2023/09/10 09:24:55;;;;;;;31.85;28.58;;;25.90;99.90;;;;;;4991423;28;20042;-57
2023/09/10 09:27:23;;;;;;;30.15;27.13;;;26.00;99.90;;;;;;4991236;28;20488;-58
2023/09/10 09:29:49;;;;;;;30.85;27.63;;;26.10;99.90;;;;;;4990621;28;20531;-56
2023/09/10 09:32:15;;;;;;;24.85;22.58;;;26.20;99.90;;;;;;4980772;28;20042;-57
2023/09/10 09:34:41;;;;;;;27.73;24.73;;;26.20;99.90;;;;;;4977509;28;20097;-57
2023/09/10 09:37:07;;;;;;;25.27;22.50;;;26.20;99.90;;;;;;4978949;28;20046;-56
2023/09/10 09:39:33;;;;;;;23.27;20.88;;;26.30;99.90;;;;;;4985776;28;20038;-59
2023/09/10 09:41:58;;;;;;;25.88;23.40;;;26.30;99.90;;;;;;4990853;28;20038;-56
2023/09/10 09:44:25;;;;;;;25.27;22.77;;;26.30;99.90;;;;;;4990675;28;20226;-59
2023/09/10 09:46:56;;;;;;;26.90;21.88;;;26.40;99.90;;;;;;4991115;28;20053;-59
2023/09/10 09:49:22;;;;;;;28.67;25.83;;;26.50;99.90;;;;;;4990806;28;20045;-56
2023/09/10 09:51:48;;;;;;;26.60;23.92;;;26.50;99.90;;;;;;4991218;28;20434;-57
2023/09/10 09:54:13;;;;;;;23.48;20.02;;;26.60;99.90;;;;;;4990722;28;20548;-59
2023/09/10 09:56:42;;;;;;;23.45;21.20;;;26.70;99.90;;;;;;4990382;28;20078;-59
2023/09/10 09:59:10;;;;;;;24.17;20.83;;;26.70;99.90;;;;;;4990614;28;20450;-58
2023/09/10 10:01:38;;;;;;;23.75;21.35;;;26.80;99.90;;;;;;4990977;28;20117;-58
2023/09/10 10:04:04;;;;;;;21.73;19.60;;;26.80;99.90;;;;;;4990815;28;20046;-58
2023/09/10 10:06:31;;;;;;;24.80;20.42;;;26.90;99.90;;;;;;4990672;28;20042;-57
2023/09/10 10:08:57;;;;;;;22.95;20.83;;;27.00;99.90;;;;;;4990216;28;20042;-57
2023/09/10 10:11:32;;;;;;;24.05;21.13;;;27.00;99.90;;;;;;4990120;28;20103;-58
2023/09/10 10:13:59;;;;;;;21.67;19.45;;;27.10;99.90;;;;;;4993333;28;20046;-57
2023/09/10 10:16:29;;;;;;;21.60;19.35;;;27.10;99.90;;;;;;4994668;28;20054;-58
2023/09/10 10:18:55;;;;;;;22.92;19.73;;;27.20;99.90;;;;;;4991048;28;20057;-58
2023/09/10 10:21:22;;;;;;;21.88;19.55;;;27.30;99.90;;;;;;4990370;28;20075;-54
2023/09/10 10:23:48;;;;;;;21.38;18.70;;;27.30;99.90;;;;;;4990483;28;20121;-55
2023/09/10 10:26:16;;;;;;;19.40;17.60;;;27.40;99.90;;;;;;4990435;28;20109;-56
2023/09/10 10:28:44;;;;;;;19.45;17.55;;;27.50;99.90;;;;;;4990438;28;20046;-57
2023/09/10 10:31:16;;;;;;;19.05;17.13;;;27.50;99.90;;;;;;4984970;28;20043;-57
2023/09/10 10:34:10;;;;;;;19.70;17.60;;;27.50;99.90;;;;;;4988815;28;20038;-57
2023/09/10 10:36:48;;;;;;;24.85;18.85;;;27.60;99.90;;;;;;4990258;28;20050;-56
2023/09/10 10:39:16;;;;;;;24.45;17.63;;;27.70;99.90;;;;;;4995655;28;20038;-58
2023/09/10 10:41:50;;;;;;;18.92;17.05;;;27.70;99.90;;;;;;4991618;28;20429;-58
2023/09/10 10:44:29;;;;;;;17.52;15.60;;;27.80;99.90;;;;;;4989223;28;20129;-58
2023/09/10 10:47:02;;;;;;;24.13;16.27;;;27.90;99.90;;;;;;4990749;28;20042;-57
2023/09/10 10:49:30;;;;;;;17.08;13.85;;;27.90;99.90;;;;;;4990032;28;20124;-57
2023/09/10 10:52:01;;;;;;;20.40;14.82;;;28.00;99.90;;;;;;4990037;28;20358;-55
2023/09/10 10:54:28;;;;;;;20.80;14.82;;;28.10;99.90;;;;;;4990524;28;20436;-56
2023/09/10 10:56:55;;;;;;;20.58;14.15;;;28.20;99.90;;;;;;4990195;28;20054;-56
2023/09/10 10:59:21;;;;;;;18.45;14.30;;;28.20;99.90;;;;;;4989923;28;20469;-58
2023/09/10 11:02:21;;;;;;;15.25;13.77;;;28.30;99.90;;;;;;4990113;28;20065;-56
2023/09/10 11:04:58;;;;;;;17.83;13.68;;;28.30;99.90;;;;;;4990407;28;20401;-57
2023/09/10 11:07:26;;;;;;;23.67;15.32;;;28.40;99.90;;;;;;4990146;28;20485;-54
2023/09/10 11:09:52;;;;;;;22.25;14.02;;;28.40;99.90;;;;;;4989735;28;20065;-58
2023/09/10 11:12:18;;;;;;;15.82;11.27;;;28.40;99.90;;;;;;4989869;28;20066;-58
2023/09/10 11:15:05;;;;;;;13.65;11.85;;;28.50;99.90;;;;;;4989980;28;20092;-57
2023/09/10 11:17:32;;;;;;;18.63;12.48;;;28.60;99.90;;;;;;4990151;28;20121;-59
2023/09/10 11:19:58;;;;;;;22.00;13.63;;;28.60;99.90;;;;;;4989641;28;20053;-56
2023/09/10 11:22:25;;;;;;;40.70;14.05;;;28.60;99.90;;;;;;4989905;28;20046;-58
2023/09/10 11:25:06;;;;;;;14.10;12.60;;;28.60;99.90;;;;;;4990022;28;20045;-58
2023/09/10 11:27:34;;;;;;;25.08;12.88;;;28.70;99.90;;;;;;4989518;28;20043;-56
2023/09/10 11:30:21;;;;;;;22.73;12.15;;;28.80;99.90;;;;;;4992336;28;20148;-59
2023/09/10 11:32:47;;;;;;;23.60;12.00;;;28.90;99.80;;;;;;4984156;28;20070;-58
2023/09/10 11:35:18;;;;;;;13.30;12.00;;;28.90;99.90;;;;;;4984650;28;20046;-57
2023/09/10 11:37:49;;;;;;;15.05;11.20;;;29.00;99.90;;;;;;4994605;28;20046;-57
2023/09/10 11:40:17;;;;;;;13.63;12.18;;;29.00;99.80;;;;;;4993796;28;20043;-57
2023/09/10 11:42:44;;;;;;;21.00;13.10;;;29.00;99.70;;;;;;4993416;28;20042;-57
2023/09/10 11:45:11;;;;;;;14.13;9.32;;;29.10;99.50;;;;;;4993176;28;20034;-57
2023/09/10 11:47:41;;;;;;;23.65;8.93;;;29.20;99.40;;;;;;4993095;28;20039;-57
2023/09/10 11:50:08;;;;;;;16.73;10.50;;;29.30;99.50;;;;;;4992422;28;20501;-57
2023/09/10 11:52:35;;;;;;;23.05;11.13;;;29.40;99.30;;;;;;4993221;28;20059;-55
2023/09/10 11:55:00;;;;;;;27.23;9.32;;;29.30;98.50;;;;;;4993078;28;20069;-58
2023/09/10 11:57:27;;;;;;;26.77;9.52;;;29.20;98.70;;;;;;4993149;28;20066;-55
2023/09/10 11:59:53;;;;;;;21.20;9.32;;;29.20;99.30;;;;;;4992749;28;20046;-54
2023/09/10 12:02:20;;;;;;;31.63;9.98;;;29.20;99.20;;;;;;4992683;28;20517;-58
2023/09/10 12:04:47;;;;;;;19.38;11.60;;;29.30;99.10;;;;;;4992679;28;20089;-58
2023/09/10 12:07:13;;;;;;;20.60;8.95;;;29.30;98.70;;;;;;4992998;28;20049;-58
2023/09/10 12:09:38;;;;;;;29.65;9.75;;;29.40;98.80;;;;;;4992462;28;20121;-58
2023/09/10 12:12:17;;;;;;;23.45;9.40;;;29.40;98.30;;;;;;4992864;28;20185;-57
2023/09/10 12:14:43;;;;;;;20.88;8.55;;;29.50;97.80;;;;;;4993031;28;20046;-58
2023/09/10 12:17:10;;;;;;;24.10;9.82;;;29.40;98.30;;;;;;4992750;28;20049;-58
2023/09/10 12:19:37;;;;;;;23.90;10.23;;;29.50;98.70;;;;;;4992182;28;20038;-58
2023/09/10 12:22:04;;;;;;;26.88;9.20;;;29.50;98.00;;;;;;4992687;28;20038;-58
2023/09/10 12:24:30;;;;;;;18.83;9.10;;;29.50;97.90;;;;;;4992594;28;20034;-57
2023/09/10 12:26:56;;;;;;;18.83;8.60;;;29.50;97.80;;;;;;4992510;28;20053;-57
2023/09/10 12:29:22;;;;;;;19.38;8.68;;;29.50;98.20;;;;;;4991992;28;20039;-58
2023/09/10 12:31:52;;;;;;;29.80;9.35;;;29.50;98.20;;;;;;4982464;28;20049;-58
2023/09/10 12:34:19;;;;;;;20.83;9.75;;;29.70;98.20;;;;;;4988643;28;20527;-56
2023/09/10 12:36:45;;;;;;;36.03;10.32;;;29.70;99.10;;;;;;4992400;28;20042;-57